Ashwood, Texas
Current Conditions -  °F | °C
As of 8:53 PM on Thursday 18 Dec 2014 (Local Time) from KLBX Reporting Station
Moderate Rain Moderate Rain  
Wind Chill: 17°   Ceiling: 400
Heat Index: 17°   Visibility: 3mi
Dew Point: 17°   Wind: 12mph
Humidity: 100%   Direction: 60°ENE
Pressure: 30.05"   Gusts: NA
Location:  29.0235°N, 95.7113°W
Report Text: KLBX 190253Z AUTO 06010KT 3SM RA BR OVC004 17/17 A3005 RMK AO2 RAB45 SLP175 P0000 60004 T01720172 51007
Loading
Personal Weather Stations






























Interactive Weather Map New forecast layout! Learn more

10-Day Weather Forecast

Advertisements
Track Severe Weather on mobile